Aérodrome :
LOGIN :

S'inscrire | Disclaimer

   EN    FR    IT 

 










Légende :    VFR   VFR Marginal   IFR   IFR Intensif   IFR Très Intensif
Visi : 
Plafond : 
>= 8 km
>= 3000ft
5 à 8 km
1000 à 3000 ft
1500m à 5 km
500 à 1000 ft
800 à 1500m
200 à 500 ft
< 800m
< 200 ft
Symboles :   Orages  Brouillard  Fortes neiges  Fortes précipitations  Vent > 20 kt
SIGMETs :   Divers  Orages  Givrage  Turbulence  Onde Orograph.  Cendres Volcan.






- Altitude de l'aérodrome : 1 ft


EGCK - Caernarfon

DERNIER METAR :
  • 221320Z 28004KT 240V300 9999 FEW012 BKN020 08/04 Q1038

METARs EXPIRÉS :
  • 221250Z 27008KT 9999 FEW006 BKN018 08/04 Q1038
  • 221220Z 27007KT 9999 FEW009 BKN020 08/05 Q1038
  • 221150Z 27004KT 230V300 9999 FEW011 BKN018 07/05 Q1038
  • 221120Z 29005KT 270V330 9999 BKN018 07/05 Q1038
  • 221050Z VRB06KT 9999 BKN019 08/04 Q1039

TAF TAF EGCK
Valide du 22 à 12h jusqu'au 22 à 21h UTC


221100Z 2212/2221 29010KT 9999 BKN020
PROB30
TEMPO 2212/2221 BKN012
BECMG 2216/2219 22004KT



MET'MAP, la Météo Aéronautique d'un coup d'oeil ! - Copyright ORBIFLY Décembre 2007 - Disclaimer

ORBIFLY MET'MAP TEAM :

Programmation & Développement : Alexandra Zaïnal
Sur une idée originale de : Baudouin d'Aumeries
Assistance à la programmation : Marc-Olivier Méhu
Soutien technique & logistique : Manuel Goepfert

Contact : metmap@orbifly.com




SOURCES & CREDITS :

   NOAA